KDKK/DKK METAR and TAF weather

Enter ICAO airport designator
Station Type Date Time Source
KDKK METAR 2020/09/23 01:53 UTC NOAA

KDKK 230153Z AUTO 21007KT 10SM CLR 13/11 A3006 RMK AO2 SLP179 T01330106 $


Station Type Date Time Source
KDKK Decoded METAR 2020/09/23 01:53 UTC NOAA

CHAUTAUQUA COUNTY/DUNKIRK, NY, United States (KDKK) 42-30N 079-17W 202M
Sep 22, 2020 - 09:53 PM EDT / 2020.09.23 0153 UTC
Wind: from the SSW (210 degrees) at 8 MPH (7 KT):0
Visibility: 10 mile(s):0
Sky conditions: clear
Temperature: 55.9 F (13.3 C)
Dew Point: 51.1 F (10.6 C)
Relative Humidity: 83%
Pressure (altimeter): 30.06 in. Hg (1017 hPa)
ob: KDKK 230153Z AUTO 21007KT 10SM CLR 13/11 A3006 RMK AO2 SLP179 T01330106
cycle: 2

Station Type Date Time Source
KDKK TAF UTC NOAA

Error!

Example: see airport list